createdAt,value
2019-02-27T00:01:25.997Z,63.20
2019-02-27T00:03:55.340Z,65.33
2019-02-27T00:06:24.740Z,62.43
2019-02-27T00:08:54.187Z,63.70
2019-02-27T00:11:23.614Z,63.63
2019-02-27T00:13:52.981Z,68.10
2019-02-27T00:16:22.528Z,66.37
2019-02-27T00:18:53.672Z,69.40
2019-02-27T00:21:23.627Z,66.40
2019-02-27T00:23:56.737Z,73.57
2019-02-27T00:26:24.171Z,70.73
2019-02-27T00:28:55.921Z,66.70
2019-02-27T00:31:24.755Z,73.87
2019-02-27T00:33:54.130Z,84.60
2019-02-27T00:36:23.674Z,82.17
2019-02-27T00:38:53.026Z,74.90
2019-02-27T00:41:22.432Z,64.10
2019-02-27T00:43:51.975Z,71.87
2019-02-27T00:46:21.458Z,73.43
2019-02-27T00:48:51.126Z,69.60
2019-02-27T00:51:20.473Z,76.80
2019-02-27T00:53:50.167Z,74.50
2019-02-27T00:56:19.504Z,78.07
2019-02-27T00:58:49.165Z,80.27
2019-02-27T01:01:18.592Z,72.60
2019-02-27T01:03:48.103Z,85.37
2019-02-27T01:06:17.468Z,83.43
2019-02-27T01:08:47.233Z,83.40
2019-02-27T01:11:18.395Z,86.60
2019-02-27T01:13:48.211Z,80.77
2019-02-27T01:16:17.844Z,73.30
2019-02-27T01:18:47.538Z,80.30
2019-02-27T01:21:19.461Z,76.47
2019-02-27T01:23:47.971Z,87.03
2019-02-27T01:26:17.341Z,81.93
2019-02-27T01:28:46.746Z,81.33
2019-02-27T01:31:16.057Z,89.47
2019-02-27T01:33:45.484Z,92.07
2019-02-27T01:36:14.857Z,85.17
2019-02-27T01:38:44.568Z,86.13
2019-02-27T01:41:13.926Z,93.37
2019-02-27T01:43:43.455Z,94.97
2019-02-27T01:46:12.845Z,80.70
2019-02-27T01:48:43.643Z,89.23
2019-02-27T01:51:13.194Z,91.23
2019-02-27T01:53:42.599Z,92.43
2019-02-27T01:56:11.998Z,89.23
2019-02-27T01:58:44.118Z,100.43
2019-02-27T02:01:12.534Z,78.47
2019-02-27T02:03:41.985Z,92.77
2019-02-27T02:06:11.449Z,97.97
2019-02-27T02:11:29.188Z,85.17
2019-02-27T02:14:11.440Z,93.17
2019-02-27T02:17:19.037Z,95.27
2019-02-27T02:20:27.213Z,93.53
2019-02-27T02:23:35.103Z,89.37
2019-02-27T02:26:42.532Z,97.10
2019-02-27T02:29:52.996Z,94.07
2019-02-27T02:32:59.052Z,95.87
2019-02-27T02:35:51.241Z,97.13
2019-02-27T02:38:32.464Z,94.03
2019-02-27T02:41:51.968Z,98.37
2019-02-27T02:44:44.459Z,98.00
2019-02-27T02:47:46.398Z,92.67
2019-02-27T02:50:54.988Z,107.17
2019-02-27T02:54:02.451Z,93.77
2019-02-27T02:56:50.111Z,89.27
2019-02-27T02:59:59.921Z,106.73
2019-02-27T03:02:53.149Z,93.33
2019-02-27T03:05:49.925Z,93.63
2019-02-27T03:08:57.295Z,96.73
2019-02-27T03:12:04.816Z,86.67
2019-02-27T03:15:12.155Z,104.50
2019-02-27T03:18:19.504Z,88.10
2019-02-27T03:21:28.725Z,88.97
2019-02-27T03:24:36.049Z,104.10
2019-02-27T03:27:43.383Z,102.17
2019-02-27T03:30:39.732Z,106.20
2019-02-27T03:33:47.134Z,95.63
2019-02-27T03:36:43.839Z,99.70
2019-02-27T03:39:51.169Z,91.70
2019-02-27T03:42:58.587Z,96.50
2019-02-27T03:46:06.334Z,96.67
2019-02-27T03:49:03.799Z,88.10
2019-02-27T03:51:59.917Z,87.53
2019-02-27T03:55:02.761Z,104.97
2019-02-27T03:57:57.677Z,102.57
2019-02-27T04:00:53.810Z,87.97
2019-02-27T04:03:54.244Z,93.23
2019-02-27T04:06:57.448Z,100.73
2019-02-27T04:09:26.858Z,93.47
2019-02-27T04:11:56.190Z,89.07
2019-02-27T04:14:44.764Z,95.63
2019-02-27T04:17:32.213Z,99.80
2019-02-27T04:20:01.706Z,105.57
2019-02-27T04:22:36.203Z,117.23
2019-02-27T04:25:02.207Z,109.87
2019-02-27T04:27:31.784Z,113.47
2019-02-27T04:30:01.118Z,110.67
2019-02-27T04:32:30.738Z,101.57
2019-02-27T04:35:00.286Z,107.72
2019-02-27T04:37:30.044Z,87.10
2019-02-27T04:39:59.439Z,98.00
2019-02-27T04:42:29.268Z,95.43
2019-02-27T04:45:17.492Z,103.97
2019-02-27T04:47:46.865Z,106.60
2019-02-27T04:50:16.288Z,105.20
2019-02-27T04:52:45.680Z,101.50
2019-02-27T04:55:15.627Z,93.33
2019-02-27T04:57:47.240Z,99.10
2019-02-27T05:00:35.776Z,105.43
2019-02-27T05:03:05.393Z,108.90
2019-02-27T05:08:26.862Z,103.07
2019-02-27T05:10:54.234Z,107.97
2019-02-27T05:13:23.664Z,104.70
2019-02-27T05:18:29.469Z,99.93
2019-02-27T05:21:19.158Z,108.90
2019-02-27T05:24:08.720Z,107.93
2019-02-27T05:26:38.223Z,100.33
2019-02-27T05:29:07.791Z,107.87
2019-02-27T05:31:37.236Z,109.83
2019-02-27T05:34:06.688Z,104.93
2019-02-27T05:36:37.157Z,102.67
2019-02-27T05:39:27.720Z,103.20
2019-02-27T05:41:57.102Z,106.40
2019-02-27T05:44:26.809Z,103.53
2019-02-27T05:46:56.235Z,113.20
2019-02-27T05:52:15.100Z,112.70
2019-02-27T05:54:45.565Z,95.47
2019-02-27T05:57:15.414Z,98.47
2019-02-27T05:59:44.823Z,131.73
2019-02-27T06:02:14.392Z,109.53
2019-02-27T06:04:44.137Z,113.47
2019-02-27T06:07:18.709Z,110.00
2019-02-27T06:09:46.324Z,95.13
2019-02-27T06:12:25.745Z,110.77
2019-02-27T06:14:56.501Z,112.03
2019-02-27T06:17:26.725Z,90.80
2019-02-27T06:20:15.834Z,90.83
2019-02-27T06:22:46.290Z,94.00
2019-02-27T06:25:21.646Z,82.27
2019-02-27T06:27:48.469Z,83.27
2019-02-27T06:33:11.623Z,74.83
2019-02-27T06:35:40.260Z,81.67
2019-02-27T06:38:09.949Z,74.07
2019-02-27T06:43:27.949Z,91.60
2019-02-27T06:45:57.526Z,99.20
2019-02-27T06:48:26.845Z,88.07
2019-02-27T06:50:58.309Z,104.17
2019-02-27T06:53:27.555Z,92.83
2019-02-27T06:55:56.962Z,89.90
2019-02-27T06:58:26.367Z,98.87
2019-02-27T07:01:14.727Z,85.73
2019-02-27T07:03:44.239Z,91.87
2019-02-27T07:06:13.567Z,94.70
2019-02-27T07:11:18.575Z,97.10
2019-02-27T07:13:48.092Z,116.40
2019-02-27T07:16:17.509Z,122.50
2019-02-27T07:18:46.870Z,92.50
2019-02-27T07:21:16.465Z,102.20
2019-02-27T07:23:45.831Z,88.17
2019-02-27T07:26:15.809Z,121.53
2019-02-27T07:28:46.431Z,99.20
2019-02-27T07:31:18.540Z,90.13
2019-02-27T07:33:48.269Z,103.90
2019-02-27T07:36:38.506Z,86.83
2019-02-27T07:39:27.053Z,99.77
2019-02-27T07:41:56.400Z,89.97
2019-02-27T07:44:26.007Z,92.90
2019-02-27T07:46:57.582Z,90.53
2019-02-27T07:49:48.228Z,104.75
2019-02-27T07:52:17.512Z,92.07
2019-02-27T07:54:47.738Z,98.80
2019-02-27T07:57:28.403Z,101.37
2019-02-27T07:59:57.832Z,79.30
2019-02-27T08:02:27.214Z,90.13
2019-02-27T08:04:56.661Z,102.80
2019-02-27T08:10:40.052Z,84.60
2019-02-27T08:13:09.399Z,93.40
2019-02-27T08:15:39.117Z,82.83
2019-02-27T08:18:08.540Z,70.20
2019-02-27T08:20:38.463Z,63.17
2019-02-27T08:23:07.794Z,67.60
2019-02-27T08:25:37.311Z,61.47
2019-02-27T08:28:06.663Z,78.57
2019-02-27T08:30:55.399Z,67.90
2019-02-27T08:33:43.929Z,63.07
2019-02-27T08:36:13.701Z,74.13
2019-02-27T08:39:01.924Z,58.53
2019-02-27T08:41:31.626Z,73.97
2019-02-27T08:44:02.627Z,64.23
2019-02-27T08:46:33.995Z,69.63
2019-02-27T08:49:03.033Z,67.30
2019-02-27T08:51:32.378Z,63.77
2019-02-27T08:54:01.813Z,56.97
2019-02-27T08:56:31.153Z,54.90
2019-02-27T08:59:05.044Z,50.17
2019-02-27T09:04:20.547Z,53.07
2019-02-27T09:06:49.868Z,51.60
2019-02-27T09:09:19.262Z,59.27
2019-02-27T09:11:48.716Z,52.83
2019-02-27T09:14:18.214Z,45.77
2019-02-27T09:16:47.528Z,50.53
2019-02-27T09:19:17.107Z,43.53
2019-02-27T09:21:46.431Z,48.13
2019-02-27T09:24:15.754Z,40.53
2019-02-27T09:26:45.141Z,38.43
2019-02-27T09:29:18.455Z,40.73
2019-02-27T09:31:50.862Z,43.10
2019-02-27T09:34:16.901Z,41.37
2019-02-27T09:36:46.217Z,41.03
2019-02-27T09:39:15.546Z,34.10
2019-02-27T09:42:03.890Z,38.10
2019-02-27T09:44:36.371Z,31.73
2019-02-27T09:47:04.683Z,32.37
2019-02-27T09:49:53.342Z,35.83
2019-02-27T09:52:23.770Z,29.73
2019-02-27T09:54:54.875Z,33.80
2019-02-27T09:57:27.064Z,37.83
2019-02-27T09:59:56.191Z,32.10
2019-02-27T10:02:25.535Z,33.90
2019-02-27T10:04:55.014Z,35.23
2019-02-27T10:07:24.491Z,34.60
2019-02-27T10:09:54.166Z,36.03
2019-02-27T10:12:27.121Z,36.30
2019-02-27T10:14:54.899Z,30.43
2019-02-27T10:17:24.328Z,36.87
2019-02-27T10:19:53.843Z,32.53
2019-02-27T10:22:42.247Z,32.33
2019-02-27T10:25:11.675Z,31.43
2019-02-27T10:27:41.277Z,28.03
2019-02-27T10:30:11.750Z,32.13
2019-02-27T10:32:42.349Z,29.57
2019-02-27T10:38:07.168Z,30.97
2019-02-27T10:40:36.557Z,31.43
2019-02-27T10:43:05.914Z,28.37
2019-02-27T10:48:42.614Z,33.70
2019-02-27T10:51:11.921Z,25.63
2019-02-27T10:53:41.385Z,30.90
2019-02-27T10:56:10.718Z,24.13
2019-02-27T10:58:40.718Z,26.60
2019-02-27T11:01:10.023Z,29.80
2019-02-27T11:03:41.609Z,21.30
2019-02-27T11:09:42.244Z,27.30
2019-02-27T11:12:11.556Z,23.40
2019-02-27T11:14:41.129Z,27.43
2019-02-27T11:17:29.380Z,24.13
2019-02-27T11:19:58.678Z,24.00
2019-02-27T11:22:31.401Z,21.90
2019-02-27T11:24:59.306Z,29.30
2019-02-27T11:27:28.739Z,24.77
2019-02-27T11:30:16.970Z,26.07
2019-02-27T11:32:46.340Z,21.90
2019-02-27T11:35:15.865Z,24.03
2019-02-27T11:37:47.481Z,29.33
2019-02-27T11:40:18.711Z,27.90
2019-02-27T11:42:48.138Z,22.43
2019-02-27T11:45:36.555Z,21.37
2019-02-27T11:48:05.857Z,22.70
2019-02-27T11:50:35.181Z,26.13
2019-02-27T11:53:04.515Z,25.03
2019-02-27T11:55:34.404Z,25.57
2019-02-27T11:58:05.413Z,23.17
2019-02-27T12:00:35.105Z,24.37
2019-02-27T12:03:04.436Z,21.17
2019-02-27T12:05:34.561Z,21.10
2019-02-27T12:08:25.766Z,22.40
2019-02-27T12:10:55.081Z,25.30
2019-02-27T12:13:24.359Z,19.87
2019-02-27T12:15:53.666Z,25.60
2019-02-27T12:21:11.494Z,18.23
2019-02-27T12:24:00.363Z,26.13
2019-02-27T12:26:29.686Z,22.70
2019-02-27T12:28:59.179Z,24.50
2019-02-27T12:31:28.469Z,24.23
2019-02-27T12:34:02.412Z,19.50
2019-02-27T12:36:28.924Z,18.80
2019-02-27T12:38:58.230Z,19.67
2019-02-27T12:41:29.956Z,23.40
2019-02-27T12:43:58.611Z,17.07
2019-02-27T12:46:28.243Z,16.07
2019-02-27T12:48:57.536Z,23.67
2019-02-27T12:51:27.182Z,16.83
2019-02-27T12:53:56.479Z,15.00
2019-02-27T12:59:01.830Z,25.53
2019-02-27T13:01:31.172Z,20.87
2019-02-27T13:04:00.916Z,23.67
2019-02-27T13:06:34.404Z,18.80
2019-02-27T13:09:01.347Z,20.27
2019-02-27T13:11:30.669Z,22.30
2019-02-27T13:14:00.395Z,19.10
2019-02-27T13:16:49.591Z,25.47
2019-02-27T13:19:19.611Z,15.83
2019-02-27T13:21:49.348Z,17.33
2019-02-27T13:27:30.630Z,21.10
2019-02-27T13:30:08.464Z,18.37
2019-02-27T13:32:31.390Z,19.40
2019-02-27T13:37:36.388Z,14.73
2019-02-27T13:40:07.814Z,17.33
2019-02-27T13:42:37.380Z,13.03
2019-02-27T13:45:12.554Z,21.17
2019-02-27T13:47:39.460Z,20.63
2019-02-27T13:53:03.945Z,18.57
2019-02-27T13:55:33.300Z,20.33
2019-02-27T13:58:03.714Z,24.93
2019-02-27T14:00:34.125Z,27.33
2019-02-27T14:03:03.419Z,23.50
2019-02-27T14:05:36.029Z,23.50
2019-02-27T14:10:53.303Z,27.53
2019-02-27T14:13:23.666Z,30.27
2019-02-27T14:15:52.977Z,22.80
2019-02-27T14:18:22.371Z,24.70
2019-02-27T14:20:51.812Z,22.60
2019-02-27T14:23:21.165Z,17.33
2019-02-27T14:25:50.499Z,20.87
2019-02-27T14:28:21.054Z,24.53
2019-02-27T14:30:51.011Z,20.63
2019-02-27T14:33:20.771Z,18.17
2019-02-27T14:35:50.173Z,19.80
2019-02-27T14:38:21.941Z,25.83
2019-02-27T14:43:28.483Z,24.27
2019-02-27T14:45:57.824Z,22.83
2019-02-27T14:48:27.620Z,30.13
2019-02-27T14:50:57.058Z,23.60
2019-02-27T14:53:26.516Z,22.07
2019-02-27T14:55:55.862Z,22.50
2019-02-27T14:58:44.102Z,17.87
2019-02-27T15:01:14.470Z,23.80
2019-02-27T15:03:44.779Z,20.50
2019-02-27T15:06:15.951Z,23.63
2019-02-27T15:08:45.577Z,26.10
2019-02-27T15:11:14.957Z,20.30
2019-02-27T15:13:44.433Z,25.17
2019-02-27T15:16:15.338Z,24.87
2019-02-27T15:18:45.380Z,24.13
2019-02-27T15:21:14.816Z,19.63
2019-02-27T15:24:03.254Z,24.43
2019-02-27T15:26:33.152Z,17.50
2019-02-27T15:29:03.146Z,23.17
2019-02-27T15:31:34.655Z,22.40
2019-02-27T15:34:11.836Z,22.80
2019-02-27T15:36:39.306Z,19.07
2019-02-27T15:39:29.692Z,22.97
2019-02-27T15:42:01.037Z,24.17
2019-02-27T15:44:31.349Z,21.50
2019-02-27T15:47:02.390Z,29.17
2019-02-27T15:49:31.877Z,24.40
2019-02-27T15:52:06.411Z,27.37
2019-02-27T15:54:32.262Z,24.90
2019-02-27T15:57:01.794Z,26.70
2019-02-27T15:59:31.153Z,30.33
2019-02-27T16:02:03.543Z,18.83
2019-02-27T16:04:31.869Z,30.60
2019-02-27T16:07:01.523Z,24.00
2019-02-27T16:09:31.797Z,21.20
2019-02-27T16:12:01.827Z,25.67
2019-02-27T16:14:31.194Z,24.73
2019-02-27T16:17:00.789Z,28.67
2019-02-27T16:19:30.125Z,17.63
2019-02-27T16:21:59.448Z,26.17
2019-02-27T16:24:28.947Z,23.03
2019-02-27T16:27:01.264Z,25.63
2019-02-27T16:29:29.450Z,22.33
2019-02-27T16:32:17.868Z,19.50
2019-02-27T16:34:47.423Z,30.90
2019-02-27T16:37:21.941Z,30.20
2019-02-27T16:39:48.191Z,28.37
2019-02-27T16:42:18.133Z,29.27
2019-02-27T16:44:47.453Z,27.57
2019-02-27T16:47:19.902Z,19.20
2019-02-27T16:49:50.455Z,20.13
2019-02-27T16:52:19.117Z,29.90
2019-02-27T16:54:50.649Z,26.83
2019-02-27T16:57:24.128Z,22.43
2019-02-27T16:59:51.097Z,29.20
2019-02-27T17:02:20.455Z,16.23
2019-02-27T17:04:50.185Z,26.10
2019-02-27T17:07:38.740Z,26.20
2019-02-27T17:13:04.857Z,20.50
2019-02-27T17:15:36.017Z,18.63
2019-02-27T17:18:27.843Z,21.27
2019-02-27T17:20:55.428Z,24.53
2019-02-27T17:23:24.967Z,23.47
2019-02-27T17:25:54.397Z,19.60
2019-02-27T17:28:24.022Z,15.00
2019-02-27T17:31:12.827Z,18.03
2019-02-27T17:33:43.587Z,18.10
2019-02-27T17:36:32.634Z,19.20
2019-02-27T17:41:53.459Z,23.93
2019-02-27T17:44:22.831Z,22.37
2019-02-27T17:46:54.683Z,20.93
2019-02-27T17:49:25.469Z,23.93
2019-02-27T17:51:54.227Z,22.80
2019-02-27T17:54:23.705Z,22.30
2019-02-27T17:56:53.033Z,21.40
2019-02-27T17:59:22.453Z,18.13
2019-02-27T18:01:51.742Z,23.90
2019-02-27T18:04:21.274Z,21.33
2019-02-27T18:06:50.578Z,21.90
2019-02-27T18:09:23.437Z,28.17
2019-02-27T18:11:52.526Z,21.87
2019-02-27T18:14:24.945Z,22.00
2019-02-27T18:16:54.188Z,19.03
2019-02-27T18:19:23.475Z,22.80
2019-02-27T18:21:53.056Z,18.97
2019-02-27T18:24:41.307Z,24.93
2019-02-27T18:27:10.659Z,27.73
2019-02-27T18:29:41.178Z,25.63
2019-02-27T18:32:11.103Z,22.63
2019-02-27T18:38:27.545Z,25.20
2019-02-27T18:40:55.521Z,21.83
2019-02-27T18:43:27.227Z,22.47
2019-02-27T18:45:55.995Z,22.50
2019-02-27T18:48:25.361Z,20.30
2019-02-27T18:50:55.931Z,25.27
2019-02-27T18:53:25.821Z,29.83
2019-02-27T18:58:52.025Z,25.83
2019-02-27T19:06:47.604Z,21.90
2019-02-27T19:09:16.924Z,28.63
2019-02-27T19:11:47.428Z,27.17
2019-02-27T19:14:17.512Z,28.83
2019-02-27T19:16:46.962Z,33.57
2019-02-27T19:22:08.074Z,27.83
2019-02-27T19:24:35.776Z,34.33
2019-02-27T19:27:05.301Z,40.83
2019-02-27T19:29:53.762Z,39.17
2019-02-27T19:32:24.147Z,35.67
2019-02-27T19:34:57.096Z,32.60
2019-02-27T19:37:26.475Z,42.27
2019-02-27T19:39:57.085Z,35.83
2019-02-27T19:42:27.860Z,41.70
2019-02-27T19:44:57.305Z,40.50
2019-02-27T19:47:45.696Z,48.27
2019-02-27T19:50:15.333Z,45.23
2019-02-27T19:52:44.675Z,56.67
2019-02-27T19:55:14.366Z,48.37
2019-02-27T19:57:43.838Z,58.53
2019-02-27T20:03:10.380Z,45.80
2019-02-27T20:05:40.317Z,56.93
2019-02-27T20:08:10.939Z,64.93
2019-02-27T20:10:40.993Z,51.83
2019-02-27T20:13:49.664Z,56.87
2019-02-27T20:16:20.690Z,57.93
2019-02-27T20:18:54.903Z,68.93
2019-02-27T20:24:01.074Z,64.53
2019-02-27T20:29:04.285Z,65.07
2019-02-27T20:31:33.394Z,61.70
2019-02-27T20:34:02.786Z,65.97
2019-02-27T20:42:15.483Z,66.40
2019-02-27T20:44:44.801Z,73.67
2019-02-27T20:50:02.597Z,70.40
2019-02-27T20:52:31.903Z,70.93
2019-02-27T20:55:01.427Z,76.17
2019-02-27T20:57:30.747Z,77.93
2019-02-27T21:00:02.161Z,70.57
2019-02-27T21:02:31.406Z,74.40
2019-02-27T21:05:00.794Z,84.40
2019-02-27T21:07:30.091Z,70.10
2019-02-27T21:09:59.560Z,68.47
2019-02-27T21:12:28.845Z,78.30
2019-02-27T21:14:58.588Z,82.07
2019-02-27T21:17:27.936Z,77.60
2019-02-27T21:19:57.328Z,66.63
2019-02-27T21:22:27.754Z,74.63
2019-02-27T21:24:57.652Z,73.63
2019-02-27T21:27:28.472Z,75.53
2019-02-27T21:29:58.075Z,66.03
2019-02-27T21:32:46.346Z,77.30
2019-02-27T21:35:16.190Z,74.50
2019-02-27T21:37:45.776Z,69.40
2019-02-27T21:40:28.906Z,70.57
2019-02-27T21:42:50.815Z,65.53
2019-02-27T21:45:19.043Z,79.50
2019-02-27T21:48:07.345Z,74.13
2019-02-27T21:50:39.618Z,74.73
2019-02-27T21:53:07.709Z,77.80
2019-02-27T21:55:37.212Z,70.60
2019-02-27T22:00:54.863Z,73.23
2019-02-27T22:03:24.295Z,71.97
2019-02-27T22:05:53.770Z,67.80
2019-02-27T22:08:25.139Z,73.00
2019-02-27T22:10:54.336Z,66.17
2019-02-27T22:13:29.465Z,71.90
2019-02-27T22:16:14.141Z,79.47
2019-02-27T22:19:02.480Z,80.30
2019-02-27T22:21:34.164Z,70.40
2019-02-27T22:24:02.863Z,72.63
2019-02-27T22:26:34.259Z,68.13
2019-02-27T22:29:03.176Z,74.37
2019-02-27T22:31:32.512Z,72.60
2019-02-27T22:34:01.794Z,75.93
2019-02-27T22:36:31.138Z,76.07
2019-02-27T22:39:01.174Z,76.13
2019-02-27T22:41:32.057Z,76.77
2019-02-27T22:44:20.433Z,71.70
2019-02-27T22:46:49.825Z,73.20
2019-02-27T22:49:19.209Z,77.60
2019-02-27T22:51:48.581Z,84.33
2019-02-27T22:54:18.051Z,77.13
2019-02-27T22:56:51.572Z,78.43
2019-02-27T22:59:18.452Z,74.33
2019-02-27T23:01:53.636Z,76.93
2019-02-27T23:04:22.905Z,80.40
2019-02-27T23:06:52.229Z,80.00
2019-02-27T23:09:22.246Z,65.80
2019-02-27T23:11:51.642Z,75.70
2019-02-27T23:14:21.111Z,71.33
2019-02-27T23:16:50.962Z,78.97
2019-02-27T23:19:20.265Z,54.43
2019-02-27T23:21:49.752Z,83.70
2019-02-27T23:24:19.187Z,68.50
2019-02-27T23:27:07.639Z,72.20
2019-02-27T23:29:39.656Z,71.87
2019-02-27T23:32:08.239Z,65.13
2019-02-27T23:34:38.411Z,66.37
2019-02-27T23:37:08.707Z,61.53
2019-02-27T23:42:27.844Z,73.53
2019-02-27T23:44:57.637Z,60.40
2019-02-27T23:47:28.717Z,67.70
2019-02-27T23:49:58.040Z,53.90
2019-02-27T23:52:27.314Z,64.20
2019-02-27T23:54:56.654Z,60.10
2019-02-27T23:57:25.915Z,72.93
2019-02-27T23:59:55.207Z,54.90
